Home > Products > Valid Products > MTR

000
SAUS43 KDDC 021103
MTRP28
METAR KP28 021056Z AUTO 16005KT 19/18 A2994 RMK AO1 SLP121 T01940178





000
SAUS43 KDDC 021003
MTRP28
METAR KP28 020956Z AUTO 20007KT 20/19 A2991 RMK AO1 SLP111 P0002
T02000189





000
SAUS43 KDDC 020903
MTRP28
METAR KP28 020856Z AUTO 00000KT 22/21 A2987 RMK AO1 WSHFT 0752
SLP098 P0031 60032 T02170206 56005





000
SAUS43 KDDC 020819
MTRP28
SPECI KP28 020812Z AUTO 08016G23KT 21/20 A2985 RMK AO1 WSHFT 0752
PRESFR P0018 T02110200





000
SAUS43 KDDC 020803
MTRP28
METAR KP28 020756Z AUTO 03010KT 23/21 A2988 RMK AO1 SLP100 P0001
T02280206





000
SAUS43 KDDC 020703
MTRP28
METAR KP28 020656Z AUTO 08008KT 23/20 A2988 RMK AO1 SLP101 T02330200





000
SAUS43 KDDC 020557
MTRP28
METAR KP28 020556Z AUTO 03006KT 23/20 A2989 RMK AO1 SLP104 T02330200
10283 20228 403390194 51009





000
SAUS43 KDDC 020458
MTRP28
METAR KP28 020456Z AUTO 06006KT 23/20 A2989 RMK AO1 SLP105 T02280200





000
SAUS43 KDDC 020358
MTRP28
METAR KP28 020356Z AUTO 07006KT 23/20 A2987 RMK AO1 SLP100 T02330200





000
SAUS43 KDDC 020358
MTRP28
METAR KP28 020356Z AUTO 07006KT 23/20 A2987 RMK AO1 SLP100 T02330200





000
SAUS43 KDDC 020257
MTRP28
METAR KP28 020256Z AUTO 02008KT 23/19 A2986 RMK AO1 SLP097 T02330194
53023





000
SAUS43 KDDC 020158
MTRP28
METAR KP28 020156Z AUTO 02010KT 24/20 A2984 RMK AO1 SLP092 T02390200





000
SAUS43 KDDC 020058
MTRP28
METAR KP28 020056Z AUTO 02016KT 26/20 A2980 RMK AO1 SLP078 T02560200





000
SAUS43 KDDC 012357
MTRP28
METAR KP28 012356Z AUTO 03018G24KT 28/21 A2979 RMK AO1 SLP072
T02830206 10339 20283 50002





000
SAUS43 KDDC 012258
MTRP28
METAR KP28 012256Z AUTO 04016G22KT 31/21 A2980 RMK AO1 SLP073
T03060211





000
SAUS43 KDDC 012157
MTRP28
METAR KP28 012156Z AUTO 04013KT 31/21 A2979 RMK AO1 SLP070 T03110211





000
SAUS43 KDDC 012058
MTRP28
METAR KP28 012056Z AUTO 04006KT 32/21 A2978 RMK AO1 SLP068 T03220211
58015





000
SAUS43 KDDC 011958
MTRP28
METAR KP28 011956Z AUTO 07008KT 33/21 A2981 RMK AO1 SLP076 T03280211





000
SAUS43 KDDC 011857
MTRP28
METAR KP28 011856Z AUTO 09007KT 32/21 A2981 RMK AO1 SLP075 T03220211





000
SAUS43 KDDC 011758
MTRP28
METAR KP28 011756Z AUTO 29/21 A2983 RMK AO1 SLP082 T02940206 10300
20194 58006





000
SAUS43 KDDC 011658
MTRP28
METAR KP28 011656Z AUTO 13010G17KT 28/21 A2985 RMK AO1 SLP088
T02830206





000
SAUS43 KDDC 011558
MTRP28
METAR KP28 011556Z AUTO 13011G21KT 26/19 A2985 RMK AO1 SLP090
T02560194





000
SAUS43 KDDC 011457
MTRP28
METAR KP28 011456Z AUTO 12015G24KT 24/18 A2985 RMK AO1 SLP089
T02390178 50004





000
SAUS43 KDDC 011358
MTRP28
METAR KP28 011356Z AUTO 11015G24KT 21/17 A2985 RMK AO1 SLP091
T02110167





000
SAUS43 KDDC 011257
MTRP28
METAR KP28 011256Z AUTO 09015G23KT 20/16 A2985 RMK AO1 SLP090
T02000161





000
SAUS43 KDDC 011158
MTRP28
METAR KP28 011156Z AUTO 09013G20KT 19/16 A2984 RMK AO1 SLP085
T01940161 10278 20194 53011





000
SAUS43 KDDC 011058
MTRP28
METAR KP28 011056Z AUTO 08013G19KT 20/16 A2982 RMK AO1 SLP078
T02000161





000
SAUS43 KDDC 010957
MTRP28
METAR KP28 010956Z AUTO 09012G20KT 20/16 A2981 RMK AO1 SLP075
T02000161





000
SAUS43 KDDC 010858
MTRP28
METAR KP28 010856Z AUTO 07016G22KT 19/16 A2980 RMK AO1 PK WND
06028/0827 SLP073 T01940156 51023





000
SAUS43 KDDC 010757
MTRP28
METAR KP28 010756Z AUTO 06014G22KT 22/18 A2979 RMK AO1 SLP068
T02220178





000
SAUS43 KDDC 010658
MTRP28
METAR KP28 010656Z AUTO 09008KT 27/19 A2975 RMK AO1 SLP051 T02720189





000
SAUS43 KDDC 010558
MTRP28
METAR KP28 010556Z AUTO 35008KT 27/19 A2973 RMK AO1 PRESRR SLP046
T02720189 10350 20272 403720217 53030





000
SAUS43 KDDC 010457
MTRP28
METAR KP28 010456Z AUTO 18014G22KT 29/19 A2967 RMK AO1 PK WND
18027/0427 SLP024 T02940189





000
SAUS43 KDDC 010358
MTRP28
METAR KP28 010356Z AUTO 18016G21KT 30/18 A2966 RMK AO1 PK WND
19026/0304 SLP024 T03000178





000
SAUS43 KDDC 010258
MTRP28
METAR KP28 010256Z AUTO 18019G27KT 31/17 A2964 RMK AO1 PK WND
17028/0228 SLP016 T03110172 51006





000
SAUS43 KDDC 010157
MTRP28
METAR KP28 010156Z AUTO 18018G23KT 32/17 A2963 RMK AO1 PK WND
17026/0116 SLP015 T03170172





000
SAUS43 KDDC 010157
MTRP28
METAR KP28 010156Z AUTO 18018G23KT 32/17 A2963 RMK AO1 PK WND
17026/0116 SLP015 T03170172





000
SAUS43 KDDC 010058
MTRP28
METAR KP28 010056Z AUTO 17014G21KT 33/17 A2965 RMK AO1 PK WND
19038/0000 SLP021 T03280172





000
SAUS43 KDDC 312358
MTRP28
METAR KP28 312356Z AUTO 19021G28KT 35/16 A2962 RMK AO1 PK WND
18036/2314 SLP010 T03500161 10372 20339 58025





000
SAUS43 KDDC 312257
MTRP28
METAR KP28 312256Z AUTO 18023G35KT 36/16 A2966 RMK AO1 PK WND
21035/2247 SLP024 T03610156





000
SAUS43 KDDC 312157
MTRP28
METAR KP28 312156Z AUTO 19020G32KT 37/15 A2968 RMK AO1 PK WND
19034/2123 SLP030 T03670150





000
SAUS43 KDDC 312058
MTRP28
METAR KP28 312056Z AUTO 18020G33KT 37/15 A2970 RMK AO1 PK WND
19035/2034 SLP035 T03720150 56032





000
SAUS43 KDDC 311958
MTRP28
METAR KP28 311956Z AUTO 19021G30KT 37/16 A2972 RMK AO1 PK WND
19031/1939 SLP044 T03720156





000
SAUS43 KDDC 311858
MTRP28
METAR KP28 311856Z AUTO 19018G28KT 36/18 A2975 RMK AO1 PK WND
17028/1853 SLP055 T03560183





000
SAUS43 KDDC 311758
MTRP28
METAR KP28 311756Z AUTO 19017G24KT 33/19 A2980 RMK AO1 SLP070
T03330189 10339 20222 58017





000
SAUS43 KDDC 311658
MTRP28
METAR KP28 311656Z AUTO 20016G22KT 33/19 A2982 RMK AO1 SLP077
T03280189





000
SAUS43 KDDC 311557
MTRP28
METAR KP28 311556Z AUTO 17010KT 28/20 A2985 RMK AO1 SLP088 T02780200





000
SAUS43 KDDC 311458
MTRP28
METAR KP28 311456Z AUTO 15009KT 26/20 A2985 RMK AO1 SLP089 T02610200
50003





000
SAUS43 KDDC 311357
MTRP28
METAR KP28 311356Z AUTO 13007KT 23/19 A2986 RMK AO1 SLP094 T02330189





000
SAUS43 KDDC 311258
MTRP28
METAR KP28 311256Z AUTO 16004KT 22/18 A2986 RMK AO1 SLP095 T02220178





000
SAUS43 KDDC 311158
MTRP28
METAR KP28 311156Z AUTO 14008KT 22/17 A2984 RMK AO1 SLP086 T02220172
10244 20217 58004





000
SAUS43 KDDC 311057
MTRP28
METAR KP28 311056Z AUTO 17006KT 23/17 A2985 RMK AO1 SLP090 T02330167





000
SAUS43 KDDC 310958
MTRP28
METAR KP28 310956Z AUTO 00000KT 23/16 A2987 RMK AO1 SLP097 T02280161





000
SAUS43 KDDC 310858
MTRP28
METAR KP28 310856Z AUTO 12006KT 22/17 A2985 RMK AO1 SLP090 T02220167
58013





000
SAUS43 KDDC 310757
MTRP28
METAR KP28 310756Z AUTO 00000KT 22/17 A2987 RMK AO1 SLP096 T02220172





000
SAUS43 KDDC 310658
MTRP28
METAR KP28 310656Z AUTO 00000KT 22/17 A2988 RMK AO1 SLP101 T02220167





000
SAUS43 KDDC 310558
MTRP28
METAR KP28 310556Z AUTO 13004KT 24/16 A2989 RMK AO1 SLP103 T02440161
10317 20239 403330161 51002





000
SAUS43 KDDC 310458
MTRP28
METAR KP28 310456Z AUTO 12007KT 25/16 A2988 RMK AO1 SLP101 T02500156





000
SAUS43 KDDC 310357
MTRP28
METAR KP28 310356Z AUTO 12005KT 26/16 A2989 RMK AO1 SLP104 T02560161





000
SAUS43 KDDC 310303
MTRP28
METAR KP28 310256Z AUTO 13007KT 27/15 A2988 RMK AO1 SLP102 T02670150
53003





000
SAUS43 KDDC 310203
MTRP28
METAR KP28 310156Z AUTO 13006KT 28/16 A2988 RMK AO1 SLP102 T02780156





000
SAUS43 KDDC 310103
MTRP28
METAR KP28 310056Z AUTO 14004KT 29/16 A2988 RMK AO1 SLP103 T02940156





000
SAUS43 KDDC 310003
MTRP28
METAR KP28 302356Z AUTO 14008KT 32/14 A2987 RMK AO1 SLP101 T03170144
10333 20311 56009





000
SAUS43 KDDC 302303
MTRP28
METAR KP28 302256Z AUTO 17008KT 32/14 A2988 RMK AO1 SLP100 T03220144





000
SAUS43 KDDC 302203
MTRP28
METAR KP28 302156Z AUTO 17008KT 33/13 A2988 RMK AO1 SLP103 T03280133





000
SAUS43 KDDC 302103
MTRP28
METAR KP28 302056Z AUTO VRB05KT 33/15 A2990 RMK AO1 SLP109 T03330150
56019





000
SAUS43 KDDC 302003
MTRP28
METAR KP28 301956Z AUTO VRB06KT 33/14 A2992 RMK AO1 SLP114 T03280139





000
SAUS43 KDDC 301903
MTRP28
METAR KP28 301856Z AUTO 15003KT 31/13 A2994 RMK AO1 SLP123 T03110128





000
SAUS43 KDDC 301803
MTRP28
METAR KP28 301756Z AUTO 00000KT 32/14 A2996 RMK AO1 SLP129 T03170139
10317 20161 58006





000
SAUS43 KDDC 301703
MTRP28
METAR KP28 301656Z AUTO 01003KT 31/16 A2997 RMK AO1 SLP131 T03060156





000
SAUS43 KDDC 301603
MTRP28
METAR KP28 301556Z AUTO 34004KT 29/19 A2997 RMK AO1 SLP133 T02890194





000
SAUS43 KDDC 301503
MTRP28
METAR KP28 301456Z AUTO 35004KT 26/19 A2998 RMK AO1 SLP136 T02560189
51004





000
SAUS43 KDDC 301403
MTRP28
METAR KP28 301356Z AUTO 35006KT 21/18 A2998 RMK AO1 SLP138 T02060178





000
SAUS43 KDDC 301303
MTRP28
METAR KP28 301256Z AUTO 35005KT 17/16 A2998 RMK AO1 SLP138 T01720161





000
SAUS43 KDDC 301203
MTRP28
METAR KP28 301156Z AUTO 33004KT 16/15 A2997 RMK AO1 SLP135 70002
T01610150 10200 20161 53010





    US Dept of Commerce
    National Oceanic and Atmospheric Administration
    National Weather Service
    1325 East West Highway
    Silver Spring, MD 20910
    Page Author: NWS Internet Services Team
Disclaimer
Information Quality
Credits
Glossary
Privacy Policy
Freedom of Information Act (FOIA)
About Us
Career Opportunities